createdAt,value
2022-10-06T00:02:01.329Z,6.57
2022-10-06T00:04:30.336Z,6.72
2022-10-06T00:07:09.648Z,6.57
2022-10-06T00:09:38.562Z,6.88
2022-10-06T00:12:08.489Z,6.45
2022-10-06T00:14:37.996Z,6.28
2022-10-06T00:17:06.934Z,6.57
2022-10-06T00:19:35.861Z,6.82
2022-10-06T00:22:04.803Z,7.05
2022-10-06T00:24:33.920Z,6.30
2022-10-06T00:27:02.862Z,6.90
2022-10-06T00:29:42.776Z,6.55
2022-10-06T00:32:11.643Z,6.95
2022-10-06T00:34:41.450Z,6.32
2022-10-06T00:37:10.363Z,6.82
2022-10-06T00:39:39.269Z,5.70
2022-10-06T00:42:25.039Z,6.40
2022-10-06T00:44:55.273Z,6.50
2022-10-06T00:47:26.389Z,6.00
2022-10-06T00:50:07.256Z,6.68
2022-10-06T00:52:36.529Z,6.65
2022-10-06T00:55:15.939Z,6.60
2022-10-06T00:57:55.301Z,6.93
2022-10-06T01:00:29.241Z,6.25
2022-10-06T01:03:04.087Z,6.57
2022-10-06T01:05:37.480Z,7.00
2022-10-06T01:08:11.166Z,6.63
2022-10-06T01:10:45.552Z,6.55
2022-10-06T01:13:16.386Z,6.13
2022-10-06T01:16:07.297Z,7.15
2022-10-06T01:18:39.204Z,6.05
2022-10-06T01:24:19.153Z,8.36
2022-10-06T01:26:52.297Z,7.38
2022-10-06T01:29:21.704Z,7.35
2022-10-06T01:31:51.234Z,7.53
2022-10-06T01:34:22.893Z,6.71
2022-10-06T01:36:51.968Z,7.85
2022-10-06T01:39:20.995Z,7.68
2022-10-06T01:41:50.403Z,7.50
2022-10-06T01:44:19.977Z,7.68
2022-10-06T01:46:48.983Z,8.20
2022-10-06T01:49:28.257Z,8.57
2022-10-06T01:51:58.187Z,9.13
2022-10-06T01:54:27.457Z,8.30
2022-10-06T01:56:57.489Z,9.38
2022-10-06T01:59:31.096Z,9.45
2022-10-06T02:02:00.277Z,8.65
2022-10-06T02:04:29.336Z,8.68
2022-10-06T02:06:58.334Z,8.35
2022-10-06T02:09:38.515Z,8.88
2022-10-06T02:12:07.969Z,8.05
2022-10-06T02:14:41.128Z,8.82
2022-10-06T02:17:11.515Z,8.13
2022-10-06T02:19:40.558Z,8.77
2022-10-06T02:22:09.550Z,8.50
2022-10-06T02:24:38.473Z,8.73
2022-10-06T02:27:08.467Z,8.18
2022-10-06T02:29:38.307Z,7.60
2022-10-06T02:32:17.603Z,7.80
2022-10-06T02:34:47.514Z,7.68
2022-10-06T02:37:17.728Z,8.13
2022-10-06T02:39:47.588Z,7.88
2022-10-06T02:42:17.239Z,7.65
2022-10-06T02:44:46.170Z,8.55
2022-10-06T02:47:16.439Z,8.82
2022-10-06T02:49:51.190Z,9.05
2022-10-06T02:52:20.138Z,9.23
2022-10-06T02:55:01.729Z,8.68
2022-10-06T02:57:32.364Z,8.10
2022-10-06T03:00:07.700Z,8.07
2022-10-06T03:02:39.959Z,8.20
2022-10-06T03:05:09.568Z,7.65
2022-10-06T03:07:38.768Z,8.10
2022-10-06T03:10:08.821Z,7.97
2022-10-06T03:12:39.206Z,7.43
2022-10-06T03:15:09.632Z,7.68
2022-10-06T03:17:38.631Z,7.07
2022-10-06T03:20:08.446Z,7.20
2022-10-06T03:22:37.532Z,7.40
2022-10-06T03:25:09.386Z,7.32
2022-10-06T03:27:39.303Z,6.75
2022-10-06T03:30:09.149Z,7.68
2022-10-06T03:32:38.971Z,7.13
2022-10-06T03:35:10.270Z,7.38
2022-10-06T03:37:39.387Z,7.32
2022-10-06T03:40:09.546Z,7.68
2022-10-06T03:42:39.477Z,6.28
2022-10-06T03:45:09.068Z,7.25
2022-10-06T03:47:38.205Z,6.97
2022-10-06T03:50:07.836Z,6.80
2022-10-06T03:52:36.966Z,7.03
2022-10-06T03:55:06.523Z,7.28
2022-10-06T03:57:35.681Z,7.63
2022-10-06T04:00:06.176Z,7.25
2022-10-06T04:02:41.257Z,7.70
2022-10-06T04:05:15.838Z,7.78
2022-10-06T04:07:44.892Z,8.95
2022-10-06T04:10:14.106Z,9.25
2022-10-06T04:12:53.770Z,7.82
2022-10-06T04:15:33.138Z,8.55
2022-10-06T04:18:12.937Z,9.27
2022-10-06T04:20:43.001Z,8.38
2022-10-06T04:23:12.006Z,8.80
2022-10-06T04:25:40.955Z,9.82
2022-10-06T04:28:10.082Z,9.48
2022-10-06T04:30:39.123Z,9.63
2022-10-06T04:33:12.186Z,9.75
2022-10-06T04:35:41.218Z,9.82
2022-10-06T04:38:10.406Z,10.03
2022-10-06T04:40:39.598Z,9.60
2022-10-06T04:43:13.907Z,8.85
2022-10-06T04:45:43.024Z,8.63
2022-10-06T04:48:12.130Z,9.38
2022-10-06T04:50:41.290Z,9.27
2022-10-06T04:53:13.645Z,8.77
2022-10-06T04:55:42.618Z,8.60
2022-10-06T04:58:11.561Z,8.15
2022-10-06T05:00:41.502Z,7.82
2022-10-06T05:03:20.668Z,8.13
2022-10-06T05:05:50.266Z,7.88
2022-10-06T05:08:19.379Z,7.32
2022-10-06T05:10:50.513Z,6.68
2022-10-06T05:13:19.495Z,7.38
2022-10-06T05:15:57.002Z,6.72
2022-10-06T05:18:27.916Z,6.28
2022-10-06T05:21:06.596Z,6.18
2022-10-06T05:23:38.791Z,6.55
2022-10-06T05:26:15.300Z,5.93
2022-10-06T05:28:44.604Z,6.30
2022-10-06T05:31:17.863Z,7.10
2022-10-06T05:33:47.443Z,7.30
2022-10-06T05:36:25.014Z,8.60
2022-10-06T05:39:05.626Z,8.77
2022-10-06T05:41:43.769Z,9.07
2022-10-06T05:44:13.965Z,9.00
2022-10-06T05:47:02.864Z,8.73
2022-10-06T05:49:32.016Z,10.07
2022-10-06T05:52:05.084Z,10.48
2022-10-06T05:54:36.338Z,10.95
2022-10-06T05:57:08.376Z,10.05
2022-10-06T05:59:37.601Z,9.88
2022-10-06T06:02:09.358Z,10.55
2022-10-06T06:04:43.136Z,10.52
2022-10-06T06:07:13.641Z,10.72
2022-10-06T06:09:44.910Z,11.75
2022-10-06T06:12:16.671Z,11.48
2022-10-06T06:15:13.333Z,11.38
2022-10-06T06:17:59.382Z,11.35
2022-10-06T06:20:28.292Z,11.27
2022-10-06T06:22:57.296Z,10.93
2022-10-06T06:25:29.458Z,10.90
2022-10-06T06:27:59.609Z,11.75
2022-10-06T06:30:28.888Z,12.27
2022-10-06T06:33:00.661Z,12.27
2022-10-06T06:35:30.574Z,13.07
2022-10-06T06:38:00.324Z,13.27
2022-10-06T06:40:30.724Z,13.70
2022-10-06T06:43:06.228Z,16.05
2022-10-06T06:46:04.623Z,16.50
2022-10-06T06:49:06.119Z,17.65
2022-10-06T06:51:42.395Z,17.92
2022-10-06T06:54:13.289Z,16.05
2022-10-06T06:56:46.244Z,16.42
2022-10-06T06:59:15.861Z,15.93
2022-10-06T07:01:48.464Z,17.20
2022-10-06T07:04:21.399Z,17.35
2022-10-06T07:06:58.772Z,16.95
2022-10-06T07:09:35.135Z,16.35
2022-10-06T07:12:07.573Z,16.17
2022-10-06T07:14:36.627Z,15.40
2022-10-06T07:17:30.417Z,15.27
2022-10-06T07:20:18.187Z,16.23
2022-10-06T07:23:06.313Z,16.83
2022-10-06T07:25:37.193Z,21.02
2022-10-06T07:28:17.450Z,20.80
2022-10-06T07:30:46.797Z,20.60
2022-10-06T07:33:21.165Z,20.75
2022-10-06T07:35:51.488Z,21.27
2022-10-06T07:38:26.328Z,22.48
2022-10-06T07:41:19.408Z,21.65
2022-10-06T07:44:04.576Z,20.83
2022-10-06T07:46:36.416Z,21.00
2022-10-06T07:49:17.866Z,17.00
2022-10-06T07:51:47.283Z,10.90
2022-10-06T07:54:16.557Z,10.05
2022-10-06T07:57:08.007Z,9.07
2022-10-06T07:59:42.196Z,8.75
2022-10-06T08:02:11.100Z,8.15
2022-10-06T08:04:40.193Z,6.55
2022-10-06T08:07:10.995Z,6.95
2022-10-06T08:09:40.028Z,5.82
2022-10-06T08:21:20.069Z,5.00
2022-10-06T08:23:50.474Z,5.00
2022-10-06T08:26:21.753Z,4.32
2022-10-06T08:28:52.700Z,4.50
2022-10-06T08:31:23.924Z,4.65
2022-10-06T08:33:58.017Z,5.15
2022-10-06T08:36:31.975Z,5.05
2022-10-06T08:39:01.944Z,4.82
2022-10-06T08:41:40.181Z,5.10
2022-10-06T08:44:21.331Z,4.90
2022-10-06T08:47:01.049Z,4.78
2022-10-06T08:49:41.195Z,4.78
2022-10-06T08:52:45.611Z,4.88
2022-10-06T08:55:33.069Z,5.10
2022-10-06T08:58:29.637Z,4.38
2022-10-06T09:01:03.576Z,4.33
2022-10-06T09:03:32.705Z,5.07
2022-10-06T09:06:29.831Z,4.45
2022-10-06T09:09:08.637Z,4.27
2022-10-06T09:11:37.626Z,5.00
2022-10-06T09:14:22.303Z,4.47
2022-10-06T09:16:57.737Z,4.40
2022-10-06T09:19:33.849Z,4.50
2022-10-06T09:22:05.251Z,4.15
2022-10-06T09:24:47.465Z,4.75
2022-10-06T09:27:27.297Z,4.95
2022-10-06T09:29:56.596Z,4.72
2022-10-06T09:32:29.016Z,4.20
2022-10-06T09:35:03.033Z,4.47
2022-10-06T09:37:55.277Z,4.85
2022-10-06T09:43:54.822Z,5.20
2022-10-06T09:46:35.786Z,5.00
2022-10-06T09:49:26.957Z,5.63
2022-10-06T09:52:09.743Z,5.28
2022-10-06T09:54:42.231Z,5.25
2022-10-06T09:57:16.006Z,5.25
2022-10-06T09:59:47.202Z,47.00
2022-10-06T10:02:40.133Z,5.47
2022-10-06T10:05:21.746Z,5.13
2022-10-06T10:08:18.595Z,5.30
2022-10-06T10:10:47.719Z,5.63
2022-10-06T10:13:25.276Z,5.32
2022-10-06T10:15:58.991Z,5.45
2022-10-06T10:18:31.183Z,5.68
2022-10-06T10:21:05.575Z,5.78
2022-10-06T10:23:39.696Z,6.53
2022-10-06T10:26:18.547Z,8.98
2022-10-06T10:29:01.905Z,29.90
2022-10-06T10:38:27.423Z,7.07
2022-10-06T10:41:03.384Z,6.82
2022-10-06T10:43:41.270Z,7.47
2022-10-06T10:46:25.397Z,6.97
2022-10-06T10:52:20.785Z,7.28
2022-10-06T10:55:07.290Z,6.38
2022-10-06T10:57:41.994Z,7.68
2022-10-06T11:00:22.394Z,7.69
2022-10-06T11:02:58.569Z,13.63
2022-10-06T11:06:05.785Z,11.35
2022-10-06T11:08:37.595Z,8.55
2022-10-06T11:11:21.751Z,6.30
2022-10-06T11:13:54.581Z,7.13
2022-10-06T11:16:26.623Z,7.13
2022-10-06T11:22:37.733Z,8.07
2022-10-06T11:25:45.078Z,7.00
2022-10-06T11:28:32.596Z,14.80
2022-10-06T11:33:50.914Z,8.48
2022-10-06T11:39:54.518Z,8.70
2022-10-06T11:42:37.370Z,7.53
2022-10-06T11:45:14.267Z,12.60
2022-10-06T11:50:49.415Z,8.50
2022-10-06T11:53:38.909Z,9.13
2022-10-06T11:56:18.064Z,8.90
2022-10-06T11:58:53.021Z,9.20
2022-10-06T12:04:08.706Z,9.80
2022-10-06T12:06:43.082Z,9.95
2022-10-06T12:09:28.881Z,9.40
2022-10-06T12:12:08.781Z,9.10
2022-10-06T12:17:42.226Z,8.65
2022-10-06T12:20:19.469Z,10.40
2022-10-06T12:23:09.576Z,13.17
2022-10-06T12:25:52.124Z,9.13
2022-10-06T12:28:27.077Z,9.73
2022-10-06T12:31:18.439Z,9.70
2022-10-06T12:33:48.774Z,9.35
2022-10-06T12:36:31.785Z,9.18
2022-10-06T12:39:25.864Z,10.40
2022-10-06T12:42:01.476Z,11.00
2022-10-06T12:44:45.279Z,11.93
2022-10-06T12:47:27.904Z,10.95
2022-10-06T12:50:02.701Z,11.90
2022-10-06T12:52:46.601Z,13.05
2022-10-06T12:55:18.382Z,13.27
2022-10-06T12:57:54.685Z,12.80
2022-10-06T13:00:42.822Z,11.52
2022-10-06T13:03:30.776Z,10.65
2022-10-06T13:06:07.332Z,10.90
2022-10-06T13:08:38.880Z,10.43
2022-10-06T13:11:25.896Z,10.07
2022-10-06T13:13:55.920Z,13.48
2022-10-06T13:16:33.313Z,12.48
2022-10-06T13:19:15.510Z,11.60
2022-10-06T13:21:45.226Z,11.23
2022-10-06T13:24:19.721Z,11.15
2022-10-06T13:26:49.017Z,10.18
2022-10-06T13:29:24.387Z,11.48
2022-10-06T13:32:00.306Z,11.47
2022-10-06T13:34:43.520Z,11.32
2022-10-06T13:37:16.348Z,11.10
2022-10-06T13:39:45.564Z,10.73
2022-10-06T13:42:21.792Z,10.67
2022-10-06T13:44:59.569Z,9.93
2022-10-06T13:47:30.390Z,10.15
2022-10-06T13:50:17.360Z,9.77
2022-10-06T13:52:49.013Z,8.88
2022-10-06T13:55:25.574Z,9.18
2022-10-06T13:58:03.410Z,8.98
2022-10-06T14:00:56.549Z,8.48
2022-10-06T14:06:21.791Z,8.45
2022-10-06T14:08:54.667Z,8.35
2022-10-06T14:11:29.940Z,10.00
2022-10-06T14:14:13.619Z,9.25
2022-10-06T14:16:49.092Z,7.93
2022-10-06T14:19:34.932Z,7.75
2022-10-06T14:22:32.759Z,7.35
2022-10-06T14:25:16.062Z,7.00
2022-10-06T14:27:45.983Z,7.28
2022-10-06T14:30:19.920Z,6.28
2022-10-06T14:32:57.280Z,6.96
2022-10-06T14:35:26.202Z,6.65
2022-10-06T14:37:55.108Z,6.82
2022-10-06T14:40:29.853Z,6.55
2022-10-06T14:43:02.383Z,6.70
2022-10-06T14:45:36.437Z,6.88
2022-10-06T14:48:05.697Z,7.22
2022-10-06T14:50:35.618Z,6.53
2022-10-06T14:53:11.077Z,6.16
2022-10-06T14:55:40.320Z,7.60
2022-10-06T14:58:09.239Z,6.88
2022-10-06T15:00:48.289Z,6.93
2022-10-06T15:03:18.363Z,7.21
2022-10-06T15:06:08.735Z,8.18
2022-10-06T15:08:38.636Z,7.40
2022-10-06T15:11:10.790Z,7.82
2022-10-06T15:13:40.372Z,8.57
2022-10-06T15:16:09.386Z,9.10
2022-10-06T15:18:42.832Z,10.60
2022-10-06T15:21:12.480Z,9.30
2022-10-06T15:23:42.099Z,9.02
2022-10-06T15:26:30.216Z,8.40
2022-10-06T15:29:03.319Z,9.93
2022-10-06T15:31:41.284Z,8.85
2022-10-06T15:34:14.499Z,9.38
2022-10-06T15:36:44.412Z,9.48
2022-10-06T15:39:35.888Z,9.80
2022-10-06T15:42:05.554Z,9.88
2022-10-06T15:44:35.402Z,11.77
2022-10-06T15:47:08.089Z,12.65
2022-10-06T15:49:41.246Z,13.05
2022-10-06T15:52:12.584Z,12.90
2022-10-06T15:54:41.945Z,12.52
2022-10-06T15:57:17.918Z,13.35
2022-10-06T15:59:49.589Z,13.52
2022-10-06T16:02:20.497Z,13.18
2022-10-06T16:05:07.037Z,12.60
2022-10-06T16:07:38.879Z,12.90
2022-10-06T16:10:11.635Z,12.88
2022-10-06T16:12:40.816Z,13.68
2022-10-06T16:15:10.389Z,15.57
2022-10-06T16:17:39.911Z,13.35
2022-10-06T16:20:12.025Z,13.50
2022-10-06T16:22:41.628Z,12.02
2022-10-06T16:25:10.988Z,11.95
2022-10-06T16:27:41.533Z,13.13
2022-10-06T16:30:14.142Z,13.80
2022-10-06T16:32:43.033Z,13.05
2022-10-06T16:35:17.451Z,12.80
2022-10-06T16:37:50.253Z,13.52
2022-10-06T16:40:22.966Z,13.43
2022-10-06T16:42:52.550Z,13.80
2022-10-06T16:45:31.848Z,14.80
2022-10-06T16:48:05.546Z,13.82
2022-10-06T16:50:44.866Z,13.63
2022-10-06T16:53:18.913Z,13.95
2022-10-06T16:55:47.982Z,13.75
2022-10-06T16:58:21.114Z,14.50
2022-10-06T17:00:57.715Z,15.30
2022-10-06T17:03:26.624Z,15.32
2022-10-06T17:06:05.584Z,15.20
2022-10-06T17:08:34.709Z,16.45
2022-10-06T17:11:16.564Z,16.95
2022-10-06T17:13:46.712Z,15.65
2022-10-06T17:16:18.366Z,16.05
2022-10-06T17:18:52.898Z,16.17
2022-10-06T17:21:45.025Z,17.85
2022-10-06T17:24:15.663Z,18.13
2022-10-06T17:26:47.024Z,17.13
2022-10-06T17:29:21.752Z,17.67
2022-10-06T17:32:00.395Z,17.58
2022-10-06T17:34:32.743Z,18.70
2022-10-06T17:37:02.970Z,19.70
2022-10-06T17:39:32.384Z,20.42
2022-10-06T17:42:01.371Z,20.88
2022-10-06T17:44:40.453Z,21.60
2022-10-06T17:47:12.715Z,21.23
2022-10-06T17:49:41.574Z,21.13
2022-10-06T17:52:10.579Z,20.40
2022-10-06T17:54:39.496Z,19.60
2022-10-06T17:57:08.468Z,20.13
2022-10-06T17:59:37.364Z,22.35
2022-10-06T18:02:06.750Z,24.52
2022-10-06T18:04:38.426Z,23.40
2022-10-06T18:07:08.842Z,22.02
2022-10-06T18:09:37.736Z,19.77
2022-10-06T18:12:08.213Z,18.88
2022-10-06T18:14:37.043Z,17.63
2022-10-06T18:17:10.876Z,15.82
2022-10-06T18:19:39.613Z,18.60
2022-10-06T18:22:14.113Z,20.88
2022-10-06T18:24:42.987Z,22.67
2022-10-06T18:27:14.036Z,21.92
2022-10-06T18:29:42.892Z,21.40
2022-10-06T18:37:53.170Z,20.98
2022-10-06T18:40:25.839Z,21.33
2022-10-06T18:42:54.751Z,21.00
2022-10-06T18:45:46.934Z,21.08
2022-10-06T18:48:34.478Z,20.25
2022-10-06T18:53:36.141Z,19.98
2022-10-06T18:56:07.313Z,18.26
2022-10-06T18:58:42.272Z,17.52
2022-10-06T19:01:12.937Z,18.70
2022-10-06T19:03:41.913Z,19.08
2022-10-06T19:06:21.426Z,18.80
2022-10-06T19:09:01.665Z,17.55
2022-10-06T19:11:51.545Z,16.80
2022-10-06T19:14:26.054Z,16.92
2022-10-06T19:17:03.804Z,15.68
2022-10-06T19:19:34.408Z,16.33
2022-10-06T19:22:05.263Z,16.45
2022-10-06T19:24:40.634Z,15.95
2022-10-06T19:27:12.855Z,15.98
2022-10-06T19:29:46.233Z,15.88
2022-10-06T19:32:18.312Z,16.20
2022-10-06T19:34:47.781Z,16.50
2022-10-06T19:37:17.287Z,16.60
2022-10-06T19:39:48.526Z,17.15
2022-10-06T19:42:37.514Z,15.40
2022-10-06T19:45:07.695Z,16.05
2022-10-06T19:47:36.756Z,15.55
2022-10-06T19:50:12.080Z,14.70
2022-10-06T19:52:42.573Z,16.23
2022-10-06T19:55:11.509Z,13.15
2022-10-06T19:57:41.893Z,12.23
2022-10-06T20:00:11.778Z,12.02
2022-10-06T20:02:44.643Z,12.30
2022-10-06T20:05:15.748Z,11.82
2022-10-06T20:07:49.200Z,13.10
2022-10-06T20:10:23.919Z,13.95
2022-10-06T20:12:52.848Z,13.27
2022-10-06T20:15:23.030Z,12.93
2022-10-06T20:17:51.909Z,11.85
2022-10-06T20:20:26.004Z,10.30
2022-10-06T20:22:55.054Z,11.20
2022-10-06T20:25:28.950Z,10.02
2022-10-06T20:27:58.018Z,10.80
2022-10-06T20:30:26.901Z,10.35
2022-10-06T20:32:55.761Z,11.68
2022-10-06T20:35:24.730Z,10.43
2022-10-06T20:37:53.596Z,10.63
2022-10-06T20:40:43.568Z,10.48
2022-10-06T20:43:17.927Z,11.10
2022-10-06T20:45:54.231Z,9.52
2022-10-06T20:48:23.121Z,9.48
2022-10-06T20:50:58.869Z,9.15
2022-10-06T20:53:32.677Z,9.63
2022-10-06T20:56:01.932Z,9.52
2022-10-06T20:58:41.689Z,8.82
2022-10-06T21:01:13.180Z,8.57
2022-10-06T21:03:56.183Z,9.27
2022-10-06T21:06:40.531Z,9.40
2022-10-06T21:09:16.985Z,9.52
2022-10-06T21:11:47.600Z,8.93
2022-10-06T21:14:16.683Z,9.38
2022-10-06T21:16:48.412Z,9.05
2022-10-06T21:19:20.072Z,8.77
2022-10-06T21:21:57.466Z,8.43
2022-10-06T21:24:26.465Z,9.20
2022-10-06T21:26:55.321Z,9.13
2022-10-06T21:29:24.243Z,8.20
2022-10-06T21:31:53.080Z,8.32
2022-10-06T21:34:21.989Z,8.80
2022-10-06T21:36:50.936Z,7.95
2022-10-06T21:39:19.913Z,8.40
2022-10-06T21:41:48.790Z,7.90
2022-10-06T21:44:19.682Z,8.65
2022-10-06T21:46:51.141Z,9.50
2022-10-06T21:49:25.265Z,11.70
2022-10-06T21:51:55.998Z,13.20
2022-10-06T21:54:25.045Z,13.85
2022-10-06T21:56:54.014Z,16.13
2022-10-06T21:59:22.873Z,16.13
2022-10-06T22:01:51.890Z,16.15
2022-10-06T22:04:20.822Z,15.82
2022-10-06T22:06:52.632Z,16.13
2022-10-06T22:09:21.906Z,15.20
2022-10-06T22:11:50.856Z,14.48
2022-10-06T22:14:20.821Z,13.38
2022-10-06T22:16:49.923Z,12.32
2022-10-06T22:19:18.929Z,12.07
2022-10-06T22:21:49.044Z,12.27
2022-10-06T22:24:20.838Z,12.98
2022-10-06T22:26:50.549Z,13.20
2022-10-06T22:29:20.723Z,13.00
2022-10-06T22:31:50.238Z,12.20
2022-10-06T22:34:21.090Z,11.32
2022-10-06T22:36:50.141Z,11.50
2022-10-06T22:39:28.959Z,11.35
2022-10-06T22:41:57.933Z,10.60
2022-10-06T22:44:26.715Z,11.13
2022-10-06T22:46:55.603Z,11.60
2022-10-06T22:49:24.547Z,14.32
2022-10-06T22:51:53.458Z,14.18
2022-10-06T22:54:22.866Z,13.57
2022-10-06T22:56:51.735Z,13.48
2022-10-06T22:59:20.595Z,13.20
2022-10-06T23:01:49.511Z,12.52
2022-10-06T23:04:18.291Z,12.10
2022-10-06T23:06:47.115Z,11.15
2022-10-06T23:09:16.082Z,11.35
2022-10-06T23:11:44.863Z,10.45
2022-10-06T23:14:13.685Z,10.82
2022-10-06T23:16:42.645Z,10.10
2022-10-06T23:19:11.717Z,10.13
2022-10-06T23:21:40.754Z,9.73
2022-10-06T23:24:09.708Z,9.90
2022-10-06T23:26:38.598Z,9.85
2022-10-06T23:29:07.889Z,10.52
2022-10-06T23:31:36.866Z,8.93
2022-10-06T23:34:05.767Z,10.50
2022-10-06T23:36:34.715Z,10.35
2022-10-06T23:39:03.566Z,9.68
2022-10-06T23:41:32.527Z,9.95
2022-10-06T23:44:01.480Z,11.18
2022-10-06T23:46:30.427Z,10.35
2022-10-06T23:48:59.399Z,10.90
2022-10-06T23:51:28.224Z,10.68
2022-10-06T23:53:57.079Z,10.93
2022-10-06T23:56:26.122Z,11.20
2022-10-06T23:58:55.004Z,11.90
